sensor_id;sensor_type;location;lat;lon;timestamp;pressure;altitude;pressure_sealevel;temperature;humidity
46394;BME280;32099;53.588;10.176;2023-04-10T00:00:46;102206.13;;;6.74;78.41
46394;BME280;32099;53.588;10.176;2023-04-10T00:03:12;102207.09;;;6.73;77.25
46394;BME280;32099;53.588;10.176;2023-04-10T00:05:38;102200.47;;;6.66;78.00
46394;BME280;32099;53.588;10.176;2023-04-10T00:08:03;102204.16;;;6.64;77.57
46394;BME280;32099;53.588;10.176;2023-04-10T00:10:29;102202.28;;;6.65;78.38
46394;BME280;32099;53.588;10.176;2023-04-10T00:12:55;102192.56;;;6.62;77.57
46394;BME280;32099;53.588;10.176;2023-04-10T00:15:21;102189.34;;;6.57;78.05
46394;BME280;32099;53.588;10.176;2023-04-10T00:17:47;102177.88;;;6.54;79.45
46394;BME280;32099;53.588;10.176;2023-04-10T00:20:14;102176.16;;;6.53;78.96
46394;BME280;32099;53.588;10.176;2023-04-10T00:22:39;102168.03;;;6.53;78.34
46394;BME280;32099;53.588;10.176;2023-04-10T00:25:05;102168.16;;;6.51;78.11
46394;BME280;32099;53.588;10.176;2023-04-10T00:27:31;102166.44;;;6.50;77.78
46394;BME280;32099;53.588;10.176;2023-04-10T00:29:56;102165.56;;;6.50;78.92
46394;BME280;32099;53.588;10.176;2023-04-10T00:32:21;102164.09;;;6.45;78.00
46394;BME280;32099;53.588;10.176;2023-04-10T00:34:47;102168.63;;;6.45;79.06
46394;BME280;32099;53.588;10.176;2023-04-10T00:37:12;102157.91;;;6.43;79.24
46394;BME280;32099;53.588;10.176;2023-04-10T00:39:37;102169.72;;;6.42;79.32
46394;BME280;32099;53.588;10.176;2023-04-10T00:42:03;102159.78;;;6.43;78.66
46394;BME280;32099;53.588;10.176;2023-04-10T00:44:33;102164.31;;;6.42;78.42
46394;BME280;32099;53.588;10.176;2023-04-10T00:47:01;102159.25;;;6.38;79.83
46394;BME280;32099;53.588;10.176;2023-04-10T00:49:28;102166.41;;;6.39;79.74
46394;BME280;32099;53.588;10.176;2023-04-10T00:51:54;102157.53;;;6.37;79.43
46394;BME280;32099;53.588;10.176;2023-04-10T00:54:20;102162.84;;;6.38;79.28
46394;BME280;32099;53.588;10.176;2023-04-10T00:56:46;102160.38;;;6.35;79.33
46394;BME280;32099;53.588;10.176;2023-04-10T00:59:13;102166.53;;;6.37;79.86
46394;BME280;32099;53.588;10.176;2023-04-10T01:01:38;102159.63;;;6.33;81.48
46394;BME280;32099;53.588;10.176;2023-04-10T01:04:04;102146.31;;;6.30;81.50
46394;BME280;32099;53.588;10.176;2023-04-10T01:06:34;102152.63;;;6.30;80.53
46394;BME280;32099;53.588;10.176;2023-04-10T01:09:13;102154.34;;;6.31;79.60
46394;BME280;32099;53.588;10.176;2023-04-10T01:14:32;102145.34;;;6.31;80.53
46394;BME280;32099;53.588;10.176;2023-04-10T01:19:58;102156.66;;;6.25;83.30
46394;BME280;32099;53.588;10.176;2023-04-10T01:22:35;102150.28;;;6.26;81.92
46394;BME280;32099;53.588;10.176;2023-04-10T01:30:43;102148.28;;;6.28;82.42
46394;BME280;32099;53.588;10.176;2023-04-10T01:33:14;102145.47;;;6.29;81.66
46394;BME280;32099;53.588;10.176;2023-04-10T01:35:42;102144.59;;;6.29;81.87
46394;BME280;32099;53.588;10.176;2023-04-10T01:38:13;102140.66;;;6.33;81.24
46394;BME280;32099;53.588;10.176;2023-04-10T01:40:41;102140.44;;;6.36;81.54
46394;BME280;32099;53.588;10.176;2023-04-10T01:43:13;102144.88;;;6.37;80.51
46394;BME280;32099;53.588;10.176;2023-04-10T01:45:40;102141.19;;;6.38;80.41
46394;BME280;32099;53.588;10.176;2023-04-10T01:48:07;102137.72;;;6.36;81.80
46394;BME280;32099;53.588;10.176;2023-04-10T01:50:33;102132.66;;;6.31;82.01
46394;BME280;32099;53.588;10.176;2023-04-10T01:52:59;102133.66;;;6.30;81.29
46394;BME280;32099;53.588;10.176;2023-04-10T01:55:27;102121.09;;;6.29;83.11
46394;BME280;32099;53.588;10.176;2023-04-10T01:57:54;102125.00;;;6.25;82.86
46394;BME280;32099;53.588;10.176;2023-04-10T02:00:20;102117.25;;;6.32;81.96
46394;BME280;32099;53.588;10.176;2023-04-10T02:02:46;102119.22;;;6.30;83.05
46394;BME280;32099;53.588;10.176;2023-04-10T02:05:11;102117.25;;;6.32;82.46
46394;BME280;32099;53.588;10.176;2023-04-10T02:10:10;102108.00;;;6.35;81.42
46394;BME280;32099;53.588;10.176;2023-04-10T02:15:18;102104.22;;;6.37;82.61
46394;BME280;32099;53.588;10.176;2023-04-10T02:17:46;102101.50;;;6.37;81.69
46394;BME280;32099;53.588;10.176;2023-04-10T02:20:14;102096.09;;;6.37;82.00
46394;BME280;32099;53.588;10.176;2023-04-10T02:22:42;102092.41;;;6.38;82.38
46394;BME280;32099;53.588;10.176;2023-04-10T02:25:08;102094.22;;;6.38;83.94
46394;BME280;32099;53.588;10.176;2023-04-10T02:27:35;102088.06;;;6.36;83.46
46394;BME280;32099;53.588;10.176;2023-04-10T02:30:02;102086.97;;;6.38;83.09
46394;BME280;32099;53.588;10.176;2023-04-10T02:32:28;102087.22;;;6.35;81.22
46394;BME280;32099;53.588;10.176;2023-04-10T02:34:54;102084.38;;;6.37;81.22
46394;BME280;32099;53.588;10.176;2023-04-10T02:37:20;102082.66;;;6.36;82.56
46394;BME280;32099;53.588;10.176;2023-04-10T02:39:46;102089.78;;;6.37;81.17
46394;BME280;32099;53.588;10.176;2023-04-10T02:42:11;102085.72;;;6.31;81.80
46394;BME280;32099;53.588;10.176;2023-04-10T02:44:36;102082.66;;;6.36;81.31
46394;BME280;32099;53.588;10.176;2023-04-10T02:47:03;102087.22;;;6.35;81.77
46394;BME280;32099;53.588;10.176;2023-04-10T02:49:30;102087.22;;;6.35;81.88
46394;BME280;32099;53.588;10.176;2023-04-10T02:51:55;102088.19;;;6.34;80.48
46394;BME280;32099;53.588;10.176;2023-04-10T02:54:21;102086.47;;;6.33;81.23
46394;BME280;32099;53.588;10.176;2023-04-10T02:56:46;102081.66;;;6.37;80.53
46394;BME280;32099;53.588;10.176;2023-04-10T02:59:11;102077.00;;;6.39;80.42
46394;BME280;32099;53.588;10.176;2023-04-10T03:01:37;102078.84;;;6.38;79.92
46394;BME280;32099;53.588;10.176;2023-04-10T03:04:03;102069.09;;;6.36;80.00
46394;BME280;32099;53.588;10.176;2023-04-10T03:06:28;102067.50;;;6.33;80.26
46394;BME280;32099;53.588;10.176;2023-04-10T03:08:54;102061.56;;;6.28;79.57
46394;BME280;32099;53.588;10.176;2023-04-10T03:11:20;102065.53;;;6.24;79.38
46394;BME280;32099;53.588;10.176;2023-04-10T03:13:45;102055.91;;;6.20;79.30
46394;BME280;32099;53.588;10.176;2023-04-10T03:16:11;102051.63;;;6.17;80.18
46394;BME280;32099;53.588;10.176;2023-04-10T03:18:36;102049.88;;;6.16;80.40
46394;BME280;32099;53.588;10.176;2023-04-10T03:21:02;102045.47;;;6.15;79.75
46394;BME280;32099;53.588;10.176;2023-04-10T03:23:27;102049.16;;;6.14;79.84
46394;BME280;32099;53.588;10.176;2023-04-10T03:25:53;102055.53;;;6.13;79.40
46394;BME280;32099;53.588;10.176;2023-04-10T03:28:19;102050.38;;;6.10;79.26
46394;BME280;32099;53.588;10.176;2023-04-10T03:30:44;102044.47;;;6.05;79.46
46394;BME280;32099;53.588;10.176;2023-04-10T03:33:10;102034.94;;;5.99;80.03
46394;BME280;32099;53.588;10.176;2023-04-10T03:35:35;102031.63;;;5.95;79.97
46394;BME280;32099;53.588;10.176;2023-04-10T03:38:00;102031.00;;;5.92;79.87
46394;BME280;32099;53.588;10.176;2023-04-10T03:40:25;102031.13;;;5.90;80.83
46394;BME280;32099;53.588;10.176;2023-04-10T03:42:51;102028.63;;;5.87;79.68
46394;BME280;32099;53.588;10.176;2023-04-10T03:45:16;102017.09;;;5.85;79.93
46394;BME280;32099;53.588;10.176;2023-04-10T03:47:41;102020.78;;;5.84;80.24
46394;BME280;32099;53.588;10.176;2023-04-10T03:50:07;102017.47;;;5.80;79.85
46394;BME280;32099;53.588;10.176;2023-04-10T03:52:32;102018.44;;;5.79;80.19
46394;BME280;32099;53.588;10.176;2023-04-10T03:54:58;102021.00;;;5.81;80.06
46394;BME280;32099;53.588;10.176;2023-04-10T03:57:23;102025.69;;;5.79;79.73
46394;BME280;32099;53.588;10.176;2023-04-10T03:59:48;102023.34;;;5.74;81.72
46394;BME280;32099;53.588;10.176;2023-04-10T04:02:14;102018.91;;;5.73;80.48
46394;BME280;32099;53.588;10.176;2023-04-10T04:04:39;102012.63;;;5.72;80.52
46394;BME280;32099;53.588;10.176;2023-04-10T04:07:05;102008.06;;;5.73;81.22
46394;BME280;32099;53.588;10.176;2023-04-10T04:09:30;102012.75;;;5.71;80.33
46394;BME280;32099;53.588;10.176;2023-04-10T04:11:55;102009.19;;;5.70;80.40
46394;BME280;32099;53.588;10.176;2023-04-10T04:14:21;102013.63;;;5.71;82.23
46394;BME280;32099;53.588;10.176;2023-04-10T04:16:47;102009.19;;;5.70;80.84
46394;BME280;32099;53.588;10.176;2023-04-10T04:19:12;102015.44;;;5.71;81.28
46394;BME280;32099;53.588;10.176;2023-04-10T04:21:38;102015.34;;;5.72;80.62
46394;BME280;32099;53.588;10.176;2023-04-10T04:24:03;102013.38;;;5.75;80.80
46394;BME280;32099;53.588;10.176;2023-04-10T04:26:28;102013.50;;;5.73;81.92
46394;BME280;32099;53.588;10.176;2023-04-10T04:28:54;102010.03;;;5.71;81.01
46394;BME280;32099;53.588;10.176;2023-04-10T04:31:19;102015.59;;;5.69;81.15
46394;BME280;32099;53.588;10.176;2023-04-10T04:33:45;102020.25;;;5.67;81.19
46394;BME280;32099;53.588;10.176;2023-04-10T04:36:10;102021.34;;;5.65;80.19
46394;BME280;32099;53.588;10.176;2023-04-10T04:38:35;102014.97;;;5.66;79.97
46394;BME280;32099;53.588;10.176;2023-04-10T04:41:01;102018.78;;;5.63;81.34
46394;BME280;32099;53.588;10.176;2023-04-10T04:43:26;102024.19;;;5.63;80.85
46394;BME280;32099;53.588;10.176;2023-04-10T04:45:51;102014.34;;;5.62;81.49
46394;BME280;32099;53.588;10.176;2023-04-10T04:48:17;102011.75;;;5.61;80.57
46394;BME280;32099;53.588;10.176;2023-04-10T04:50:42;102012.72;;;5.60;80.25
46394;BME280;32099;53.588;10.176;2023-04-10T04:53:07;102010.88;;;5.60;80.08
46394;BME280;32099;53.588;10.176;2023-04-10T04:55:33;102011.88;;;5.59;82.02
46394;BME280;32099;53.588;10.176;2023-04-10T04:57:58;102020.75;;;5.61;80.68
46394;BME280;32099;53.588;10.176;2023-04-10T05:00:24;102016.41;;;5.59;80.99
46394;BME280;32099;53.588;10.176;2023-04-10T05:02:49;102018.25;;;5.58;80.93
46394;BME280;32099;53.588;10.176;2023-04-10T05:05:15;102016.41;;;5.59;81.84
46394;BME280;32099;53.588;10.176;2023-04-10T05:07:40;102017.91;;;5.63;81.19
46394;BME280;32099;53.588;10.176;2023-04-10T05:10:06;102013.25;;;5.65;80.13
46394;BME280;32099;53.588;10.176;2023-04-10T05:12:31;102021.13;;;5.68;80.85
46394;BME280;32099;53.588;10.176;2023-04-10T05:14:57;102022.84;;;5.69;80.76
46394;BME280;32099;53.588;10.176;2023-04-10T05:17:22;102020.75;;;5.72;80.51
46394;BME280;32099;53.588;10.176;2023-04-10T05:19:47;102026.66;;;5.78;80.50
46394;BME280;32099;53.588;10.176;2023-04-10T05:22:13;102023.72;;;5.81;80.49
46394;BME280;32099;53.588;10.176;2023-04-10T05:24:38;102019.81;;;5.85;80.77
46394;BME280;32099;53.588;10.176;2023-04-10T05:27:03;102018.69;;;5.87;80.37
46394;BME280;32099;53.588;10.176;2023-04-10T05:29:28;102015.97;;;5.87;81.90
46394;BME280;32099;53.588;10.176;2023-04-10T05:31:54;102017.47;;;5.92;81.27
46394;BME280;32099;53.588;10.176;2023-04-10T05:34:19;102008.00;;;5.97;82.69
46394;BME280;32099;53.588;10.176;2023-04-10T05:36:44;102004.06;;;6.01;81.30
46394;BME280;32099;53.588;10.176;2023-04-10T05:39:10;102008.88;;;6.09;82.20
46394;BME280;32099;53.588;10.176;2023-04-10T05:41:35;102003.47;;;6.21;81.24
46394;BME280;32099;53.588;10.176;2023-04-10T05:44:00;102010.47;;;6.35;81.52
46394;BME280;32099;53.588;10.176;2023-04-10T05:46:25;102011.72;;;6.42;83.14
46394;BME280;32099;53.588;10.176;2023-04-10T05:48:51;102010.09;;;6.51;81.72
46394;BME280;32099;53.588;10.176;2023-04-10T05:51:17;102003.66;;;6.63;82.65
46394;BME280;32099;53.588;10.176;2023-04-10T05:53:42;101999.09;;;6.75;82.99
46394;BME280;32099;53.588;10.176;2023-04-10T05:56:07;101993.88;;;6.83;83.08
46394;BME280;32099;53.588;10.176;2023-04-10T05:58:33;101997.53;;;6.93;82.57
46394;BME280;32099;53.588;10.176;2023-04-10T06:00:58;102003.19;;;7.02;82.26
46394;BME280;32099;53.588;10.176;2023-04-10T06:03:23;101988.13;;;7.09;81.57
46394;BME280;32099;53.588;10.176;2023-04-10T06:05:51;102002.78;;;7.18;81.14
46394;BME280;32099;53.588;10.176;2023-04-10T06:08:16;101987.53;;;7.26;80.52
46394;BME280;32099;53.588;10.176;2023-04-10T06:10:41;101991.19;;;7.37;80.89
46394;BME280;32099;53.588;10.176;2023-04-10T06:13:07;101996.09;;;7.43;81.05
46394;BME280;32099;53.588;10.176;2023-04-10T06:15:32;101990.41;;;7.46;80.83
46394;BME280;32099;53.588;10.176;2023-04-10T06:17:57;101993.47;;;7.53;80.09
46394;BME280;32099;53.588;10.176;2023-04-10T06:20:22;101979.34;;;7.59;79.46
46394;BME280;32099;53.588;10.176;2023-04-10T06:22:48;101977.69;;;7.68;79.79
46394;BME280;32099;53.588;10.176;2023-04-10T06:25:13;101972.69;;;7.73;79.18
46394;BME280;32099;53.588;10.176;2023-04-10T06:27:39;101974.75;;;7.81;79.26
46394;BME280;32099;53.588;10.176;2023-04-10T06:30:04;101963.22;;;7.88;78.74
46394;BME280;32099;53.588;10.176;2023-04-10T06:32:30;101965.00;;;7.99;78.23
46394;BME280;32099;53.588;10.176;2023-04-10T06:34:56;101965.75;;;8.11;78.39
46394;BME280;32099;53.588;10.176;2023-04-10T06:37:27;101959.63;;;8.19;77.83
46394;BME280;32099;53.588;10.176;2023-04-10T06:40:05;101954.63;;;8.24;77.51
46394;BME280;32099;53.588;10.176;2023-04-10T06:42:31;101949.22;;;8.34;77.22
46394;BME280;32099;53.588;10.176;2023-04-10T06:44:56;101948.66;;;8.40;77.57
46394;BME280;32099;53.588;10.176;2023-04-10T06:47:22;101946.88;;;8.51;76.47
46394;BME280;32099;53.588;10.176;2023-04-10T06:49:47;101949.16;;;8.65;76.37
46394;BME280;32099;53.588;10.176;2023-04-10T06:52:12;101949.19;;;8.75;76.10
46394;BME280;32099;53.588;10.176;2023-04-10T06:54:37;101935.47;;;8.86;75.95
46394;BME280;32099;53.588;10.176;2023-04-10T06:57:03;101936.59;;;8.93;76.03
46394;BME280;32099;53.588;10.176;2023-04-10T06:59:28;101945.63;;;9.04;76.25
46394;BME280;32099;53.588;10.176;2023-04-10T07:01:53;101939.75;;;9.18;75.69
46394;BME280;32099;53.588;10.176;2023-04-10T07:04:18;101942.75;;;9.35;75.08
46394;BME280;32099;53.588;10.176;2023-04-10T07:06:44;101935.81;;;9.50;73.88
46394;BME280;32099;53.588;10.176;2023-04-10T07:09:09;101932.47;;;9.66;73.14
46394;BME280;32099;53.588;10.176;2023-04-10T07:11:35;101938.88;;;9.85;73.51
46394;BME280;32099;53.588;10.176;2023-04-10T07:14:00;101930.59;;;10.04;72.96
46394;BME280;32099;53.588;10.176;2023-04-10T07:16:25;101933.09;;;10.26;71.61
46394;BME280;32099;53.588;10.176;2023-04-10T07:18:51;101932.72;;;10.48;70.83
46394;BME280;32099;53.588;10.176;2023-04-10T07:21:16;101928.66;;;10.71;69.85
46394;BME280;32099;53.588;10.176;2023-04-10T07:23:42;101929.00;;;10.86;68.90
46394;BME280;32099;53.588;10.176;2023-04-10T07:26:07;101927.66;;;11.08;68.81
46394;BME280;32099;53.588;10.176;2023-04-10T07:28:32;101935.28;;;11.22;65.48
46394;BME280;32099;53.588;10.176;2023-04-10T07:30:57;101928.84;;;11.32;66.93
46394;BME280;32099;53.588;10.176;2023-04-10T07:33:23;101923.66;;;11.47;66.71
46394;BME280;32099;53.588;10.176;2023-04-10T07:35:48;101926.03;;;11.68;66.08
46394;BME280;32099;53.588;10.176;2023-04-10T07:38:13;101926.81;;;11.86;65.76
46394;BME280;32099;53.588;10.176;2023-04-10T07:40:39;101925.91;;;12.04;63.22
46394;BME280;32099;53.588;10.176;2023-04-10T07:43:04;101914.19;;;12.20;62.24
46394;BME280;32099;53.588;10.176;2023-04-10T07:45:29;101915.09;;;12.37;62.39
46394;BME280;32099;53.588;10.176;2023-04-10T07:47:55;101911.22;;;12.56;64.19
46394;BME280;32099;53.588;10.176;2023-04-10T07:50:22;101916.03;;;12.79;62.87
46394;BME280;32099;53.588;10.176;2023-04-10T07:52:47;101910.72;;;12.94;62.27
46394;BME280;32099;53.588;10.176;2023-04-10T07:55:13;101905.94;;;13.12;62.28
46394;BME280;32099;53.588;10.176;2023-04-10T07:57:39;101907.81;;;13.37;61.09
46394;BME280;32099;53.588;10.176;2023-04-10T08:00:05;101905.38;;;13.67;59.55
46394;BME280;32099;53.588;10.176;2023-04-10T08:02:30;101913.19;;;13.86;59.99
46394;BME280;32099;53.588;10.176;2023-04-10T08:04:55;101908.69;;;14.02;56.44
46394;BME280;32099;53.588;10.176;2023-04-10T08:07:21;101904.88;;;14.11;59.03
46394;BME280;32099;53.588;10.176;2023-04-10T08:09:46;101912.34;;;14.26;57.64
46394;BME280;32099;53.588;10.176;2023-04-10T08:12:11;101900.44;;;14.42;57.30
46394;BME280;32099;53.588;10.176;2023-04-10T08:14:37;101899.84;;;14.55;56.79
46394;BME280;32099;53.588;10.176;2023-04-10T08:17:02;101893.81;;;14.59;53.83
46394;BME280;32099;53.588;10.176;2023-04-10T08:19:27;101899.59;;;14.64;55.20
46394;BME280;32099;53.588;10.176;2023-04-10T08:21:52;101888.53;;;14.81;53.05
46394;BME280;32099;53.588;10.176;2023-04-10T08:24:18;101889.63;;;14.95;53.95
46394;BME280;32099;53.588;10.176;2023-04-10T08:26:45;101890.91;;;15.07;56.04
46394;BME280;32099;53.588;10.176;2023-04-10T08:29:10;101883.25;;;15.18;51.25
46394;BME280;32099;53.588;10.176;2023-04-10T08:31:35;101886.94;;;15.25;51.87
46394;BME280;32099;53.588;10.176;2023-04-10T08:34:01;101885.97;;;15.41;53.79
46394;BME280;32099;53.588;10.176;2023-04-10T08:36:28;101876.47;;;15.58;52.92
46394;BME280;32099;53.588;10.176;2023-04-10T08:38:53;101871.34;;;15.70;53.59
46394;BME280;32099;53.588;10.176;2023-04-10T08:41:18;101873.09;;;16.01;56.17
46394;BME280;32099;53.588;10.176;2023-04-10T08:43:44;101867.91;;;16.13;50.37
46394;BME280;32099;53.588;10.176;2023-04-10T08:46:10;101863.97;;;16.16;50.24
46394;BME280;32099;53.588;10.176;2023-04-10T08:51:11;101867.00;;;16.43;54.21
46394;BME280;32099;53.588;10.176;2023-04-10T08:53:40;101858.44;;;16.53;53.41
46394;BME280;32099;53.588;10.176;2023-04-10T08:56:09;101857.03;;;16.63;51.54
46394;BME280;32099;53.588;10.176;2023-04-10T08:58:37;101845.75;;;16.80;50.21
46394;BME280;32099;53.588;10.176;2023-04-10T09:01:03;101838.75;;;16.77;48.34
46394;BME280;32099;53.588;10.176;2023-04-10T09:03:30;101849.34;;;16.80;52.18
46394;BME280;32099;53.588;10.176;2023-04-10T09:05:55;101838.22;;;16.89;49.63
46394;BME280;32099;53.588;10.176;2023-04-10T09:08:22;101829.63;;;16.99;47.08
46394;BME280;32099;53.588;10.176;2023-04-10T09:10:47;101831.94;;;17.23;48.94
46394;BME280;32099;53.588;10.176;2023-04-10T09:13:12;101825.31;;;17.46;48.05
46394;BME280;32099;53.588;10.176;2023-04-10T09:18:40;101819.38;;;17.91;49.99
46394;BME280;32099;53.588;10.176;2023-04-10T09:21:06;101817.56;;;18.12;47.52
46394;BME280;32099;53.588;10.176;2023-04-10T09:23:33;101805.22;;;18.08;44.11
46394;BME280;32099;53.588;10.176;2023-04-10T09:25:58;101812.66;;;18.00;45.77
46394;BME280;32099;53.588;10.176;2023-04-10T09:28:23;101812.75;;;18.27;49.78
46394;BME280;32099;53.588;10.176;2023-04-10T09:30:49;101803.00;;;18.65;49.13
46394;BME280;32099;53.588;10.176;2023-04-10T09:33:24;101806.44;;;18.94;44.52
46394;BME280;32099;53.588;10.176;2023-04-10T09:35:57;101799.41;;;18.78;42.80
46394;BME280;32099;53.588;10.176;2023-04-10T09:38:27;101796.84;;;18.76;46.12
46394;BME280;32099;53.588;10.176;2023-04-10T09:40:53;101788.56;;;18.90;47.07
46394;BME280;32099;53.588;10.176;2023-04-10T09:43:31;101780.50;;;18.95;42.68
46394;BME280;32099;53.588;10.176;2023-04-10T09:45:56;101768.16;;;18.91;45.23
46394;BME280;32099;53.588;10.176;2023-04-10T09:48:22;101757.53;;;19.08;45.73
46394;BME280;32099;53.588;10.176;2023-04-10T09:50:48;101754.97;;;19.06;41.21
46394;BME280;32099;53.588;10.176;2023-04-10T09:53:14;101747.13;;;19.03;45.42
46394;BME280;32099;53.588;10.176;2023-04-10T09:55:43;101753.09;;;19.00;43.10
46394;BME280;32099;53.588;10.176;2023-04-10T09:58:10;101740.94;;;19.15;47.32
46394;BME280;32099;53.588;10.176;2023-04-10T10:00:43;101737.72;;;19.18;39.75
46394;BME280;32099;53.588;10.176;2023-04-10T10:03:11;101727.97;;;18.81;41.28
46394;BME280;32099;53.588;10.176;2023-04-10T10:05:39;101708.69;;;18.75;44.38
46394;BME280;32099;53.588;10.176;2023-04-10T10:08:16;101711.63;;;18.80;42.27
46394;BME280;32099;53.588;10.176;2023-04-10T10:10:43;101711.19;;;18.83;39.17
46394;BME280;32099;53.588;10.176;2023-04-10T10:13:14;101691.63;;;18.91;40.69
46394;BME280;32099;53.588;10.176;2023-04-10T10:15:55;101695.44;;;19.10;43.82
46394;BME280;32099;53.588;10.176;2023-04-10T10:18:34;101699.59;;;19.40;43.83
46394;BME280;32099;53.588;10.176;2023-04-10T10:21:07;101680.38;;;19.52;39.30
46394;BME280;32099;53.588;10.176;2023-04-10T10:23:33;101672.91;;;19.59;38.81
46394;BME280;32099;53.588;10.176;2023-04-10T10:25:59;101680.59;;;19.50;41.04
46394;BME280;32099;53.588;10.176;2023-04-10T10:28:28;101676.22;;;19.29;38.88
46394;BME280;32099;53.588;10.176;2023-04-10T10:30:56;101677.78;;;19.11;38.74
46394;BME280;32099;53.588;10.176;2023-04-10T10:33:22;101678.06;;;18.96;38.15
46394;BME280;32099;53.588;10.176;2023-04-10T10:35:49;101669.97;;;18.95;41.10
46394;BME280;32099;53.588;10.176;2023-04-10T10:38:15;101664.63;;;19.07;41.29
46394;BME280;32099;53.588;10.176;2023-04-10T10:43:19;101640.13;;;19.17;43.84
46394;BME280;32099;53.588;10.176;2023-04-10T10:48:35;101640.44;;;19.41;39.33
46394;BME280;32099;53.588;10.176;2023-04-10T10:51:00;101627.41;;;19.48;38.22
46394;BME280;32099;53.588;10.176;2023-04-10T10:55:56;101607.31;;;19.66;41.35
46394;BME280;32099;53.588;10.176;2023-04-10T10:58:44;101601.19;;;19.57;36.11
46394;BME280;32099;53.588;10.176;2023-04-10T11:01:13;101602.31;;;19.50;39.72
46394;BME280;32099;53.588;10.176;2023-04-10T11:03:39;101611.25;;;19.45;39.25
46394;BME280;32099;53.588;10.176;2023-04-10T11:06:06;101604.47;;;19.48;37.67
46394;BME280;32099;53.588;10.176;2023-04-10T11:10:59;101587.06;;;18.95;37.18
46394;BME280;32099;53.588;10.176;2023-04-10T11:13:30;101589.44;;;18.71;38.34
46394;BME280;32099;53.588;10.176;2023-04-10T11:15:59;101591.63;;;18.62;41.25
46394;BME280;32099;53.588;10.176;2023-04-10T11:21:13;101564.97;;;18.81;41.87
46394;BME280;32099;53.588;10.176;2023-04-10T11:24:23;101568.56;;;18.89;38.38
46394;BME280;32099;53.588;10.176;2023-04-10T11:31:45;101542.88;;;19.27;40.24
46394;BME280;32099;53.588;10.176;2023-04-10T11:34:11;101542.34;;;19.43;41.04
46394;BME280;32099;53.588;10.176;2023-04-10T11:36:40;101525.09;;;19.48;38.55
46394;BME280;32099;53.588;10.176;2023-04-10T11:39:10;101523.38;;;19.47;39.85
46394;BME280;32099;53.588;10.176;2023-04-10T11:41:44;101516.25;;;19.33;36.48
46394;BME280;32099;53.588;10.176;2023-04-10T11:44:17;101518.84;;;19.27;37.38
46394;BME280;32099;53.588;10.176;2023-04-10T11:46:55;101519.00;;;19.33;38.77
46394;BME280;32099;53.588;10.176;2023-04-10T11:49:25;101511.19;;;19.30;37.91
46394;BME280;32099;53.588;10.176;2023-04-10T11:51:53;101504.69;;;19.17;36.51
46394;BME280;32099;53.588;10.176;2023-04-10T11:54:20;101507.28;;;19.05;36.89
46394;BME280;32099;53.588;10.176;2023-04-10T11:57:00;101498.78;;;19.07;38.37
46394;BME280;32099;53.588;10.176;2023-04-10T11:59:28;101499.00;;;19.05;36.60
46394;BME280;32099;53.588;10.176;2023-04-10T12:02:05;101487.94;;;19.05;37.26
46394;BME280;32099;53.588;10.176;2023-04-10T12:04:35;101488.88;;;19.24;37.74
46394;BME280;32099;53.588;10.176;2023-04-10T12:07:01;101489.03;;;19.36;37.51
46394;BME280;32099;53.588;10.176;2023-04-10T12:09:26;101477.25;;;19.48;35.71
46394;BME280;32099;53.588;10.176;2023-04-10T12:11:59;101486.03;;;19.63;34.75
46394;BME280;32099;53.588;10.176;2023-04-10T12:14:37;101479.03;;;19.61;35.91
46394;BME280;32099;53.588;10.176;2023-04-10T12:17:05;101467.91;;;19.67;37.28
46394;BME280;32099;53.588;10.176;2023-04-10T12:19:32;101466.91;;;19.62;32.72
46394;BME280;32099;53.588;10.176;2023-04-10T12:21:58;101458.56;;;19.43;33.18
46394;BME280;32099;53.588;10.176;2023-04-10T12:24:44;101454.25;;;19.47;34.13
46394;BME280;32099;53.588;10.176;2023-04-10T12:29:50;101433.66;;;19.68;34.88
46394;BME280;32099;53.588;10.176;2023-04-10T12:32:17;101450.38;;;19.73;34.11
46394;BME280;32099;53.588;10.176;2023-04-10T12:35:16;101445.72;;;19.74;32.70
46394;BME280;32099;53.588;10.176;2023-04-10T12:37:50;101436.91;;;19.84;34.37
46394;BME280;32099;53.588;10.176;2023-04-10T12:40:17;101441.19;;;19.80;32.80
46394;BME280;32099;53.588;10.176;2023-04-10T12:42:44;101438.19;;;19.81;32.51
46394;BME280;32099;53.588;10.176;2023-04-10T12:45:09;101430.56;;;19.77;35.02
46394;BME280;32099;53.588;10.176;2023-04-10T12:47:47;101428.25;;;19.73;32.61
46394;BME280;32099;53.588;10.176;2023-04-10T12:50:18;101416.91;;;19.82;35.08
46394;BME280;32099;53.588;10.176;2023-04-10T12:53:03;101409.97;;;19.98;34.17
46394;BME280;32099;53.588;10.176;2023-04-10T12:55:31;101410.09;;;20.03;35.30
46394;BME280;32099;53.588;10.176;2023-04-10T12:58:13;101399.44;;;20.07;36.28
46394;BME280;32099;53.588;10.176;2023-04-10T13:00:41;101395.81;;;20.06;34.52
46394;BME280;32099;53.588;10.176;2023-04-10T13:03:07;101396.06;;;20.04;35.80
46394;BME280;32099;53.588;10.176;2023-04-10T13:05:32;101398.09;;;19.91;31.40
46394;BME280;32099;53.588;10.176;2023-04-10T13:07:57;101391.78;;;19.83;33.79
46394;BME280;32099;53.588;10.176;2023-04-10T13:10:23;101377.91;;;19.90;34.15
46394;BME280;32099;53.588;10.176;2023-04-10T13:12:48;101372.88;;;20.17;36.08
46394;BME280;32099;53.588;10.176;2023-04-10T13:15:13;101374.75;;;20.85;32.86
46394;BME280;32099;53.588;10.176;2023-04-10T13:17:40;101366.66;;;21.73;33.52
46394;BME280;32099;53.588;10.176;2023-04-10T13:20:06;101363.72;;;22.32;33.38
46394;BME280;32099;53.588;10.176;2023-04-10T13:22:33;101351.38;;;22.52;30.54
46394;BME280;32099;53.588;10.176;2023-04-10T13:24:58;101338.47;;;22.46;29.93
46394;BME280;32099;53.588;10.176;2023-04-10T13:27:24;101340.69;;;21.91;32.55